createdAt,value
2023-03-27T00:01:30.556Z,5.25
2023-03-27T00:04:00.612Z,5.27
2023-03-27T00:06:29.451Z,5.34
2023-03-27T00:08:58.254Z,5.36
2023-03-27T00:11:27.024Z,5.54
2023-03-27T00:13:55.683Z,5.60
2023-03-27T00:16:27.029Z,5.68
2023-03-27T00:18:57.083Z,5.60
2023-03-27T00:21:27.286Z,5.52
2023-03-27T00:23:56.691Z,5.43
2023-03-27T00:26:25.266Z,5.48
2023-03-27T00:28:54.874Z,5.48
2023-03-27T00:31:23.577Z,5.53
2023-03-27T00:33:52.561Z,5.53
2023-03-27T00:36:21.295Z,5.47
2023-03-27T00:38:53.186Z,5.46
2023-03-27T00:41:22.632Z,5.41
2023-03-27T00:43:56.424Z,5.45
2023-03-27T00:46:36.249Z,5.37
2023-03-27T00:49:11.124Z,5.46
2023-03-27T00:51:42.601Z,5.50
2023-03-27T00:54:16.367Z,5.25
2023-03-27T00:56:46.763Z,5.15
2023-03-27T00:59:21.951Z,5.35
2023-03-27T01:01:51.598Z,5.26
2023-03-27T01:04:22.208Z,5.15
2023-03-27T01:06:56.596Z,4.95
2023-03-27T01:09:27.958Z,5.23
2023-03-27T01:12:20.582Z,4.93
2023-03-27T01:15:07.390Z,4.90
2023-03-27T01:18:03.620Z,4.82
2023-03-27T01:21:22.493Z,4.84
2023-03-27T01:24:38.505Z,4.90
2023-03-27T01:27:18.496Z,4.87
2023-03-27T01:30:01.937Z,4.85
2023-03-27T01:33:10.140Z,4.92
2023-03-27T01:36:19.756Z,5.02
2023-03-27T01:39:36.173Z,4.94
2023-03-27T01:42:20.114Z,4.71
2023-03-27T01:44:54.903Z,4.90
2023-03-27T01:47:46.837Z,4.88
2023-03-27T01:50:27.321Z,4.73
2023-03-27T01:53:04.434Z,5.01
2023-03-27T01:55:40.235Z,5.04
2023-03-27T01:58:15.579Z,4.93
2023-03-27T02:00:53.126Z,4.84
2023-03-27T02:03:30.510Z,4.76
2023-03-27T02:06:07.846Z,4.90
2023-03-27T02:08:46.677Z,4.81
2023-03-27T02:11:21.701Z,4.71
2023-03-27T02:13:55.527Z,4.74
2023-03-27T02:16:33.805Z,4.73
2023-03-27T02:19:10.069Z,4.72
2023-03-27T02:21:38.987Z,4.70
2023-03-27T02:24:09.114Z,4.69
2023-03-27T02:26:39.713Z,4.73
2023-03-27T02:29:39.948Z,4.51
2023-03-27T02:32:27.426Z,4.61
2023-03-27T02:35:18.102Z,4.44
2023-03-27T02:38:01.232Z,3.87
2023-03-27T02:40:56.997Z,4.55
2023-03-27T02:44:00.997Z,4.59
2023-03-27T02:47:08.782Z,4.54
2023-03-27T02:49:45.042Z,4.01
2023-03-27T02:52:18.906Z,4.58
2023-03-27T02:54:56.775Z,4.31
2023-03-27T02:57:31.772Z,4.38
2023-03-27T03:00:25.502Z,4.34
2023-03-27T03:03:12.540Z,4.07
2023-03-27T03:05:42.882Z,4.20
2023-03-27T03:08:11.957Z,4.08
2023-03-27T03:10:45.348Z,4.44
2023-03-27T03:13:15.459Z,4.38
2023-03-27T03:15:48.375Z,4.38
2023-03-27T03:18:19.057Z,4.37
2023-03-27T03:20:48.527Z,4.25
2023-03-27T03:23:17.248Z,4.12
2023-03-27T03:25:47.957Z,4.16
2023-03-27T03:28:18.253Z,4.28
2023-03-27T03:30:51.408Z,3.78
2023-03-27T03:33:21.175Z,4.03
2023-03-27T03:35:50.621Z,4.07
2023-03-27T03:38:37.890Z,3.97
2023-03-27T03:41:11.144Z,4.02
2023-03-27T03:43:39.935Z,3.91
2023-03-27T03:46:11.185Z,3.79
2023-03-27T03:48:39.937Z,3.78
2023-03-27T03:51:08.717Z,3.80
2023-03-27T03:53:37.669Z,3.65
2023-03-27T03:56:07.290Z,3.60
2023-03-27T03:58:36.419Z,3.50
2023-03-27T04:01:09.097Z,3.20
2023-03-27T04:03:47.466Z,3.34
2023-03-27T04:06:17.525Z,3.31
2023-03-27T04:08:49.729Z,3.26
2023-03-27T04:11:44.682Z,3.30
2023-03-27T04:14:25.089Z,3.27
2023-03-27T04:16:56.414Z,3.33
2023-03-27T04:19:29.053Z,3.20
2023-03-27T04:22:03.708Z,3.37
2023-03-27T04:24:35.987Z,3.27
2023-03-27T04:27:04.772Z,3.26
2023-03-27T04:29:55.951Z,2.91
2023-03-27T04:32:33.518Z,3.10
2023-03-27T04:35:23.386Z,3.13
2023-03-27T04:38:01.782Z,3.02
2023-03-27T04:40:49.598Z,3.11
2023-03-27T04:43:19.972Z,3.04
2023-03-27T04:45:48.853Z,3.02
2023-03-27T04:48:18.429Z,2.94
2023-03-27T04:50:52.783Z,2.82
2023-03-27T04:53:36.490Z,2.95
2023-03-27T04:56:06.127Z,2.84
2023-03-27T04:58:41.090Z,2.90
2023-03-27T05:01:14.080Z,2.86
2023-03-27T05:04:02.586Z,2.97
2023-03-27T05:07:04.854Z,2.99
2023-03-27T05:09:33.708Z,2.96
2023-03-27T05:12:02.095Z,2.95
2023-03-27T05:14:37.660Z,2.89
2023-03-27T05:17:07.386Z,2.80
2023-03-27T05:19:42.339Z,2.80
2023-03-27T05:22:12.790Z,2.68
2023-03-27T05:24:50.475Z,2.88
2023-03-27T05:27:19.382Z,2.84
2023-03-27T05:29:50.626Z,2.81
2023-03-27T05:32:19.105Z,2.68
2023-03-27T05:34:54.573Z,2.87
2023-03-27T05:37:27.382Z,2.83
2023-03-27T05:40:19.561Z,2.74
2023-03-27T05:42:49.001Z,2.84
2023-03-27T05:45:18.472Z,2.85
2023-03-27T05:47:48.762Z,2.90
2023-03-27T05:50:19.524Z,2.96
2023-03-27T05:52:56.538Z,2.85
2023-03-27T05:55:32.660Z,2.93
2023-03-27T05:58:02.742Z,3.03
2023-03-27T06:00:34.230Z,3.04
2023-03-27T06:03:04.787Z,3.12
2023-03-27T06:06:00.251Z,3.14
2023-03-27T06:08:36.605Z,3.19
2023-03-27T06:11:13.839Z,3.17
2023-03-27T06:13:46.876Z,3.21
2023-03-27T06:16:23.221Z,3.26
2023-03-27T06:19:10.360Z,3.38
2023-03-27T06:21:47.629Z,3.29
2023-03-27T06:24:17.906Z,3.41
2023-03-27T06:26:47.403Z,3.45
2023-03-27T06:29:16.352Z,3.39
2023-03-27T06:31:49.628Z,3.53
2023-03-27T06:34:26.646Z,3.54
2023-03-27T06:37:08.866Z,3.46
2023-03-27T06:39:44.239Z,3.39
2023-03-27T06:42:13.016Z,3.43
2023-03-27T06:45:01.008Z,3.39
2023-03-27T06:48:17.064Z,3.41
2023-03-27T06:50:53.488Z,3.26
2023-03-27T06:55:57.399Z,3.27
2023-03-27T06:58:27.695Z,3.22
2023-03-27T07:00:57.018Z,3.15
2023-03-27T07:03:54.688Z,3.02
2023-03-27T07:06:50.589Z,2.87
2023-03-27T07:09:20.085Z,2.81
2023-03-27T07:12:01.466Z,2.29
2023-03-27T07:14:31.772Z,2.62
2023-03-27T07:17:00.926Z,2.56
2023-03-27T07:19:36.169Z,2.55
2023-03-27T07:22:09.496Z,2.50
2023-03-27T07:24:39.068Z,2.43
2023-03-27T07:27:09.815Z,2.51
2023-03-27T07:29:39.075Z,2.38
2023-03-27T07:32:09.558Z,2.50
2023-03-27T07:34:45.423Z,2.43
2023-03-27T07:37:34.408Z,2.48
2023-03-27T07:40:33.104Z,2.49
2023-03-27T07:43:29.200Z,2.51
2023-03-27T07:45:58.915Z,2.57
2023-03-27T07:48:30.067Z,2.63
2023-03-27T07:51:10.923Z,2.65
2023-03-27T07:53:43.607Z,2.72
2023-03-27T07:56:23.552Z,3.00
2023-03-27T07:59:09.189Z,3.39
2023-03-27T08:01:39.020Z,3.85
2023-03-27T08:04:08.641Z,4.09
2023-03-27T08:06:40.006Z,4.35
2023-03-27T08:09:14.659Z,4.82
2023-03-27T08:11:44.316Z,4.78
2023-03-27T08:14:14.493Z,4.60
2023-03-27T08:16:43.600Z,4.33
2023-03-27T08:19:12.607Z,4.15
2023-03-27T08:21:47.223Z,4.15
2023-03-27T08:24:17.837Z,4.35
2023-03-27T08:27:24.932Z,4.52
2023-03-27T08:29:55.887Z,4.59
2023-03-27T08:32:24.835Z,4.67
2023-03-27T08:34:56.571Z,4.60
2023-03-27T08:37:25.745Z,4.80
2023-03-27T08:40:26.086Z,5.01
2023-03-27T08:43:17.708Z,5.25
2023-03-27T08:45:54.672Z,5.28
2023-03-27T08:48:33.086Z,5.26
2023-03-27T08:51:08.016Z,4.71
2023-03-27T08:53:46.161Z,4.69
2023-03-27T08:56:17.676Z,4.35
2023-03-27T08:58:49.943Z,4.41
2023-03-27T09:01:31.184Z,4.26
2023-03-27T09:04:17.740Z,4.64
2023-03-27T09:07:02.211Z,5.00
2023-03-27T09:09:59.234Z,4.89
2023-03-27T09:12:48.346Z,5.02
2023-03-27T09:15:26.027Z,4.70
2023-03-27T09:18:04.143Z,4.90
2023-03-27T09:20:40.899Z,4.91
2023-03-27T09:23:17.801Z,5.18
2023-03-27T09:26:13.209Z,5.76
2023-03-27T09:29:05.138Z,5.92
2023-03-27T09:31:46.146Z,5.97
2023-03-27T09:34:24.629Z,5.88
2023-03-27T09:36:54.341Z,5.97
2023-03-27T09:39:33.971Z,5.64
2023-03-27T09:42:29.489Z,5.42
2023-03-27T09:45:04.985Z,4.92
2023-03-27T09:47:51.369Z,4.93
2023-03-27T09:50:31.577Z,5.00
2023-03-27T09:53:12.190Z,5.24
2023-03-27T09:55:58.798Z,5.37
2023-03-27T09:58:39.718Z,5.69
2023-03-27T10:01:15.567Z,6.03
2023-03-27T10:03:52.624Z,6.36
2023-03-27T10:06:40.949Z,6.45
2023-03-27T10:09:29.815Z,6.54
2023-03-27T10:12:17.303Z,6.64
2023-03-27T10:14:52.698Z,6.87
2023-03-27T10:17:39.214Z,6.91
2023-03-27T10:20:19.929Z,6.78
2023-03-27T10:22:57.853Z,6.79
2023-03-27T10:25:34.243Z,6.61
2023-03-27T10:28:40.886Z,6.49
2023-03-27T10:31:31.440Z,6.47
2023-03-27T10:34:30.126Z,6.93
2023-03-27T10:37:31.199Z,7.02
2023-03-27T10:40:34.765Z,7.26
2023-03-27T10:43:17.792Z,6.80
2023-03-27T10:45:52.152Z,6.81
2023-03-27T10:48:40.389Z,6.56
2023-03-27T10:51:43.056Z,6.41
2023-03-27T10:54:34.166Z,6.29
2023-03-27T10:57:11.147Z,6.52
2023-03-27T10:59:48.864Z,6.70
2023-03-27T11:02:41.236Z,6.49
2023-03-27T11:05:17.596Z,6.31
2023-03-27T11:07:54.132Z,6.02
2023-03-27T11:10:31.739Z,6.07
2023-03-27T11:13:11.050Z,5.94
2023-03-27T11:15:44.837Z,6.06
2023-03-27T11:18:47.176Z,6.51
2023-03-27T11:21:23.845Z,6.96
2023-03-27T11:24:03.985Z,7.07
2023-03-27T11:26:55.946Z,6.68
2023-03-27T11:29:32.141Z,6.48
2023-03-27T11:32:12.868Z,6.28
2023-03-27T11:34:57.664Z,6.16
2023-03-27T11:37:54.831Z,6.25
2023-03-27T11:40:35.329Z,6.82
2023-03-27T11:43:06.788Z,7.28
2023-03-27T11:45:48.802Z,7.48
2023-03-27T11:49:12.386Z,7.42
2023-03-27T11:52:06.983Z,6.91
2023-03-27T11:55:06.684Z,6.74
2023-03-27T11:57:58.771Z,6.72
2023-03-27T12:00:42.604Z,7.20
2023-03-27T12:03:57.787Z,7.67
2023-03-27T12:06:52.743Z,7.32
2023-03-27T12:09:58.272Z,7.30
2023-03-27T12:14:01.794Z,7.15
2023-03-27T12:17:12.797Z,6.71
2023-03-27T12:20:58.803Z,6.97
2023-03-27T12:23:52.781Z,6.76
2023-03-27T12:27:11.216Z,6.65
2023-03-27T12:30:25.958Z,6.68
2023-03-27T12:33:35.862Z,6.94
2023-03-27T12:36:12.710Z,7.06
2023-03-27T12:38:44.517Z,7.06
2023-03-27T12:41:26.543Z,6.99
2023-03-27T12:44:06.290Z,6.91
2023-03-27T12:46:43.259Z,6.79
2023-03-27T12:49:48.079Z,6.76
2023-03-27T12:52:30.386Z,6.75
2023-03-27T12:55:32.230Z,6.89
2023-03-27T12:58:04.067Z,6.98
2023-03-27T13:01:03.656Z,6.83
2023-03-27T13:04:34.049Z,7.13
2023-03-27T13:07:20.774Z,7.18
2023-03-27T13:10:28.066Z,7.00
2023-03-27T13:13:48.226Z,7.39
2023-03-27T13:16:35.649Z,7.90
2023-03-27T13:19:41.432Z,8.45
2023-03-27T13:22:45.076Z,9.17
2023-03-27T13:25:52.337Z,9.02
2023-03-27T13:28:34.473Z,7.66
2023-03-27T13:31:34.912Z,7.64
2023-03-27T13:34:38.717Z,7.60
2023-03-27T13:37:54.711Z,7.58
2023-03-27T13:40:34.839Z,7.29
2023-03-27T13:43:25.525Z,6.96
2023-03-27T13:46:19.285Z,7.05
2023-03-27T13:49:45.638Z,6.86
2023-03-27T13:52:47.405Z,6.64
2023-03-27T13:56:15.281Z,6.64
2023-03-27T13:59:49.214Z,6.91
2023-03-27T14:02:50.265Z,6.93
2023-03-27T14:05:56.456Z,7.11
2023-03-27T14:08:41.547Z,7.09
2023-03-27T14:12:07.701Z,7.22
2023-03-27T14:15:39.553Z,6.45
2023-03-27T14:19:24.277Z,7.38
2023-03-27T14:21:58.726Z,7.23
2023-03-27T14:24:39.415Z,7.66
2023-03-27T14:27:29.977Z,7.65
2023-03-27T14:30:19.266Z,7.48
2023-03-27T14:32:58.020Z,7.23
2023-03-27T14:35:36.143Z,6.85
2023-03-27T14:38:22.730Z,6.50
2023-03-27T14:40:54.686Z,6.34
2023-03-27T14:43:36.620Z,6.07
2023-03-27T14:46:07.677Z,5.66
2023-03-27T14:48:39.628Z,5.82
2023-03-27T14:51:13.866Z,5.76
2023-03-27T14:53:46.383Z,5.75
2023-03-27T14:56:27.847Z,5.41
2023-03-27T14:59:07.646Z,5.41
2023-03-27T15:01:47.840Z,5.54
2023-03-27T15:04:18.059Z,5.56
2023-03-27T15:06:50.105Z,5.69
2023-03-27T15:09:38.857Z,5.83
2023-03-27T15:12:37.545Z,5.62
2023-03-27T15:15:31.585Z,5.57
2023-03-27T15:18:05.118Z,5.85
2023-03-27T15:20:37.345Z,5.80
2023-03-27T15:23:19.072Z,5.95
2023-03-27T15:25:57.464Z,6.29
2023-03-27T15:28:33.839Z,6.47
2023-03-27T15:31:05.706Z,6.64
2023-03-27T15:33:41.276Z,6.87
2023-03-27T15:36:26.364Z,6.81
2023-03-27T15:38:56.003Z,6.03
2023-03-27T15:41:44.081Z,4.26
2023-03-27T15:44:18.827Z,4.00
2023-03-27T15:46:57.984Z,3.87
2023-03-27T15:49:32.171Z,3.74
2023-03-27T15:52:22.196Z,3.61
2023-03-27T15:54:56.862Z,3.61
2023-03-27T15:57:29.364Z,3.58
2023-03-27T16:00:10.200Z,3.51
2023-03-27T16:02:43.478Z,3.47
2023-03-27T16:05:20.195Z,3.53
2023-03-27T16:07:49.936Z,3.50
2023-03-27T16:10:32.640Z,3.28
2023-03-27T16:13:06.501Z,3.26
2023-03-27T16:15:41.163Z,3.72
2023-03-27T16:18:21.996Z,3.59
2023-03-27T16:20:50.579Z,3.52
2023-03-27T16:23:19.140Z,3.60
2023-03-27T16:25:47.706Z,3.80
2023-03-27T16:28:17.666Z,4.03
2023-03-27T16:30:46.395Z,4.00
2023-03-27T16:33:19.194Z,3.84
2023-03-27T16:35:48.298Z,4.28
2023-03-27T16:38:17.805Z,4.25
2023-03-27T16:40:47.004Z,4.31
2023-03-27T16:43:16.039Z,4.40
2023-03-27T16:45:44.906Z,4.40
2023-03-27T16:48:14.523Z,4.12
2023-03-27T16:50:44.744Z,4.36
2023-03-27T16:53:13.586Z,4.25
2023-03-27T16:55:42.395Z,4.18
2023-03-27T16:58:11.353Z,4.10
2023-03-27T17:00:40.246Z,4.11
2023-03-27T17:03:09.219Z,4.09
2023-03-27T17:05:38.076Z,4.04
2023-03-27T17:08:08.810Z,4.02
2023-03-27T17:10:37.766Z,3.96
2023-03-27T17:13:07.012Z,3.98
2023-03-27T17:15:38.034Z,4.01
2023-03-27T17:18:07.399Z,4.10
2023-03-27T17:20:36.872Z,4.17
2023-03-27T17:23:07.027Z,4.23
2023-03-27T17:25:36.037Z,4.26
2023-03-27T17:28:04.997Z,4.38
2023-03-27T17:30:41.001Z,4.50
2023-03-27T17:33:12.349Z,4.39
2023-03-27T17:35:41.679Z,4.13
2023-03-27T17:38:11.893Z,3.90
2023-03-27T17:40:42.055Z,3.68
2023-03-27T17:43:10.928Z,3.48
2023-03-27T17:45:42.552Z,3.15
2023-03-27T17:48:12.500Z,3.32
2023-03-27T17:50:41.763Z,3.14
2023-03-27T17:53:12.577Z,2.95
2023-03-27T17:55:44.648Z,2.59
2023-03-27T17:58:14.384Z,2.45
2023-03-27T18:00:43.226Z,2.22
2023-03-27T18:03:13.441Z,2.13
2023-03-27T18:05:44.179Z,2.03
2023-03-27T18:08:17.769Z,1.52
2023-03-27T18:10:49.052Z,1.97
2023-03-27T18:13:19.175Z,1.90
2023-03-27T18:15:48.315Z,1.85
2023-03-27T18:18:17.455Z,1.83
2023-03-27T18:20:52.449Z,1.80
2023-03-27T18:23:22.999Z,1.79
2023-03-27T18:25:51.796Z,1.75
2023-03-27T18:28:20.894Z,1.77
2023-03-27T18:30:58.424Z,1.71
2023-03-27T18:33:41.102Z,1.64
2023-03-27T18:36:12.113Z,1.03
2023-03-27T18:38:43.192Z,1.30
2023-03-27T18:41:15.626Z,0.98
2023-03-27T18:43:44.452Z,1.92
2023-03-27T18:46:17.289Z,1.96
2023-03-27T18:48:49.205Z,1.89
2023-03-27T18:51:19.401Z,1.83
2023-03-27T18:53:51.877Z,1.81
2023-03-27T18:56:20.712Z,1.80
2023-03-27T18:58:49.612Z,1.79
2023-03-27T19:01:18.751Z,1.74
2023-03-27T19:03:49.266Z,1.73
2023-03-27T19:06:20.391Z,1.72
2023-03-27T19:08:51.593Z,1.82
2023-03-27T19:11:20.479Z,1.80
2023-03-27T19:14:12.595Z,1.82
2023-03-27T19:17:00.012Z,1.81
2023-03-27T19:19:41.022Z,1.69
2023-03-27T19:22:22.900Z,1.58
2023-03-27T19:24:59.558Z,1.44
2023-03-27T19:27:39.076Z,1.37
2023-03-27T19:30:10.698Z,0.96
2023-03-27T19:32:39.558Z,1.28
2023-03-27T19:35:09.569Z,1.25
2023-03-27T19:37:38.359Z,1.24
2023-03-27T19:40:11.803Z,1.19
2023-03-27T19:42:41.004Z,1.11
2023-03-27T19:45:11.263Z,1.13
2023-03-27T19:47:40.117Z,1.09
2023-03-27T19:50:10.061Z,0.92
2023-03-27T19:52:57.260Z,1.02
2023-03-27T19:55:35.880Z,0.94
2023-03-27T19:58:04.676Z,0.88
2023-03-27T20:00:38.400Z,0.87
2023-03-27T20:03:10.671Z,0.86
2023-03-27T20:05:41.289Z,0.91
2023-03-27T20:08:10.498Z,1.00
2023-03-27T20:10:41.070Z,0.98
2023-03-27T20:13:09.856Z,0.91
2023-03-27T20:15:41.967Z,0.52
2023-03-27T20:18:11.094Z,0.71
2023-03-27T20:20:40.755Z,0.86
2023-03-27T20:23:10.022Z,0.84
2023-03-27T20:25:40.085Z,0.79
2023-03-27T20:28:09.455Z,0.55
2023-03-27T20:30:40.175Z,0.62
2023-03-27T20:33:09.702Z,0.75
2023-03-27T20:35:38.526Z,0.71
2023-03-27T20:38:11.014Z,0.71
2023-03-27T20:40:53.285Z,0.07
2023-03-27T20:43:27.498Z,0.71
2023-03-27T20:45:59.057Z,0.69
2023-03-27T20:48:32.552Z,0.67
2023-03-27T20:51:02.973Z,0.58
2023-03-27T20:53:33.916Z,0.65
2023-03-27T20:56:06.526Z,0.65
2023-03-27T20:58:37.953Z,0.66
2023-03-27T21:01:09.137Z,0.41
2023-03-27T21:03:41.835Z,0.31
2023-03-27T21:06:14.856Z,0.50
2023-03-27T21:08:43.639Z,0.78
2023-03-27T21:11:14.033Z,-0.22
2023-03-27T21:13:44.645Z,0.71
2023-03-27T21:16:13.445Z,0.67
2023-03-27T21:18:42.174Z,0.72
2023-03-27T21:21:11.043Z,0.88
2023-03-27T21:23:40.670Z,1.02
2023-03-27T21:26:09.442Z,1.09
2023-03-27T21:28:39.177Z,1.19
2023-03-27T21:31:08.764Z,1.18
2023-03-27T21:33:37.962Z,1.10
2023-03-27T21:36:07.843Z,0.90
2023-03-27T21:38:36.590Z,1.00
2023-03-27T21:41:06.232Z,1.13
2023-03-27T21:43:35.288Z,1.19
2023-03-27T21:46:05.930Z,1.29
2023-03-27T21:48:34.729Z,1.24
2023-03-27T21:51:04.655Z,1.28
2023-03-27T21:53:33.704Z,1.36
2023-03-27T21:56:03.096Z,1.52
2023-03-27T21:58:31.918Z,1.67
2023-03-27T22:01:01.243Z,1.68
2023-03-27T22:03:31.829Z,1.68
2023-03-27T22:06:11.652Z,1.71
2023-03-27T22:08:43.226Z,1.79
2023-03-27T22:11:13.619Z,1.63
2023-03-27T22:13:43.424Z,1.97
2023-03-27T22:16:15.128Z,1.08
2023-03-27T22:18:46.150Z,2.23
2023-03-27T22:21:16.806Z,2.42
2023-03-27T22:23:46.050Z,2.32
2023-03-27T22:26:14.936Z,2.30
2023-03-27T22:28:43.677Z,2.34
2023-03-27T22:31:12.698Z,2.45
2023-03-27T22:33:41.676Z,2.44
2023-03-27T22:36:13.328Z,2.47
2023-03-27T22:38:42.808Z,2.40
2023-03-27T22:41:13.617Z,2.19
2023-03-27T22:43:42.873Z,2.30
2023-03-27T22:46:14.703Z,2.24
2023-03-27T22:48:43.799Z,2.14
2023-03-27T22:51:15.079Z,1.83
2023-03-27T22:53:43.886Z,2.21
2023-03-27T22:56:12.632Z,2.27
2023-03-27T22:58:41.511Z,2.37
2023-03-27T23:01:10.224Z,2.43
2023-03-27T23:03:39.507Z,2.47
2023-03-27T23:06:09.300Z,2.42
2023-03-27T23:08:39.090Z,2.38
2023-03-27T23:11:08.292Z,2.42
2023-03-27T23:13:37.459Z,2.47
2023-03-27T23:16:06.852Z,2.54
2023-03-27T23:18:35.674Z,2.64
2023-03-27T23:21:07.384Z,1.90
2023-03-27T23:23:40.333Z,2.62
2023-03-27T23:26:10.696Z,2.61
2023-03-27T23:28:43.284Z,2.61
2023-03-27T23:31:15.645Z,2.62
2023-03-27T23:33:47.584Z,2.65
2023-03-27T23:36:19.018Z,2.73
2023-03-27T23:38:49.209Z,2.94
2023-03-27T23:41:18.519Z,2.85
2023-03-27T23:43:47.596Z,2.76
2023-03-27T23:46:16.562Z,2.86
2023-03-27T23:48:45.880Z,2.92
2023-03-27T23:51:16.926Z,2.87
2023-03-27T23:53:46.088Z,2.90
2023-03-27T23:56:15.897Z,2.62
2023-03-27T23:58:44.857Z,2.90
